Date,TemperatureHighF,TemperatureAvgF,TemperatureLowF,DewpointHighF,DewpointAvgF,DewpointLowF,HumidityHigh,HumidityAvg,HumidityLow,PressureMaxIn,PressureMinIn,WindSpeedMaxMPH,WindSpeedAvgMPH,GustSpeedMaxMPH,PrecipitationSumIn
2014-1-1,67.9,54.9,45.4,51.0,43.1,32.0,95,67,40,30.21,30.13,11,2,13,0.01
2014-1-2,74.7,58.2,49.2,49.0,38.7,30.0,82,51,21,30.15,30.05,13,3,14,0.00
2014-1-3,65.5,56.0,50.4,52.0,45.2,31.0,94,69,40,30.07,29.97,8,2,14,0.00
2014-1-4,63.2,54.0,48.1,52.0,48.5,41.0,95,83,55,30.10,30.00,9,2,16,0.01
2014-1-5,60.9,51.4,47.4,53.0,46.4,39.0,95,83,57,30.22,30.08,3,0,6,0.00
2014-1-6,60.8,53.2,47.9,54.0,47.0,34.0,93,80,53,30.29,30.19,4,1,8,0.00
2014-1-7,67.0,55.6,48.8,54.0,51.0,48.0,96,85,57,30.25,30.16,9,1,12,0.00
2014-1-8,61.7,54.3,50.1,53.0,50.7,48.0,94,88,73,30.27,30.20,7,1,9,0.00
2014-1-9,63.2,52.2,48.4,54.0,48.7,46.0,96,88,67,30.30,30.22,10,2,15,0.01
2014-1-10,62.2,53.3,46.5,53.0,48.7,43.0,96,85,62,30.32,30.20,9,3,14,0.00
2014-1-11,58.1,52.5,47.5,53.0,50.1,46.0,96,91,81,30.32,30.21,9,2,12,0.02
2014-1-12,65.0,53.1,47.0,51.0,46.9,37.0,95,81,54,30.39,30.30,6,1,11,0.01
2014-1-13,77.8,61.0,49.7,44.0,36.0,32.0,65,41,22,30.42,30.34,9,1,13,0.00
2014-1-14,84.0,65.0,54.2,45.0,33.2,25.0,49,31,16,30.43,30.30,8,2,13,0.00
2014-1-15,82.1,64.6,53.4,49.0,32.4,20.0,51,31,11,30.30,30.18,5,0,10,0.00
2014-1-16,87.1,66.0,55.1,49.0,25.6,18.0,45,23,8,30.20,30.12,3,0,6,0.00
2014-1-17,91.6,63.3,54.0,53.0,32.4,19.0,61,34,8,30.16,30.10,3,0,9,0.00
2014-1-18,76.1,60.6,51.5,45.0,34.6,21.0,73,40,14,30.15,30.07,8,2,16,0.00
2014-1-19,66.1,54.4,45.8,55.0,41.8,24.0,94,66,32,30.15,30.06,5,1,8,0.00
2014-1-20,63.3,53.6,43.0,53.0,47.7,34.0,94,81,60,30.26,30.14,6,2,12,0.00
2014-1-21,67.2,54.4,43.0,54.0,45.1,35.0,96,74,34,30.25,30.15,11,3,17,0.02
2014-1-22,73.2,58.1,50.7,52.0,43.4,27.0,93,61,31,30.16,29.97,11,2,17,0.00
2014-1-23,62.0,53.7,46.9,53.0,49.7,38.0,94,86,56,30.05,29.90,21,5,32,0.00
2014-1-24,62.9,55.0,48.6,56.0,51.0,47.0,95,87,76,30.30,30.05,13,2,21,0.00
2014-1-25,72.5,59.7,52.3,55.0,48.5,32.0,89,68,30,30.28,30.16,7,1,14,0.00
2014-1-26,69.3,57.7,52.0,55.0,48.8,38.0,93,73,52,30.17,30.08,5,1,8,0.00
2014-1-27,64.3,54.5,49.5,53.0,50.3,47.0,94,86,63,30.25,30.12,8,1,14,0.00
2014-1-28,66.6,57.1,51.9,57.0,53.7,50.0,96,89,61,30.30,30.22,14,2,15,0.00
2014-1-29,67.2,59.2,54.5,62.0,56.3,53.0,96,90,75,30.26,30.02,9,2,11,0.00
2014-1-30,62.1,49.5,52.1,54.0,33.1,-99.9,93,72,68,30.02,29.92,5,-115,9,0.01
2014-1-31,63.7,54.6,49.9,51.0,46.8,44.0,88,76,54,30.13,29.97,8,2,16,0.01
2014-2-1,64.4,50.3,45.8,47.0,34.5,-99.9,82,66,47,30.20,30.12,7,-63,11,0.00
2014-2-2,50.6,40.0,46.0,48.0,20.8,-99.9,94,72,63,30.13,29.89,12,-155,24,0.35
2014-2-3,60.6,45.8,42.2,49.0,28.5,-99.9,95,68,57,30.13,29.98,6,-103,13,0.01
2014-2-4,61.6,47.4,46.6,45.0,30.3,-99.9,84,65,49,30.21,30.12,7,-85,11,0.05
2014-2-5,60.9,52.3,46.7,46.0,43.0,40.0,89,72,52,30.25,30.12,7,1,11,0.01
2014-2-6,60.4,53.8,48.7,56.0,50.8,45.0,96,89,78,30.12,29.89,16,3,27,0.15
2014-2-7,55.8,53.7,50.1,52.0,51.0,48.0,95,90,84,30.17,30.07,26,7,38,0.07
2014-2-8,58.4,56.3,54.6,56.0,54.4,52.0,98,93,86,30.27,30.14,31,10,36,0.01
2014-2-9,57.1,56.1,55.1,56.0,55.0,54.0,98,96,93,30.26,30.17,18,8,25,0.07
2014-2-10,61.6,55.4,52.0,57.0,53.8,51.0,98,94,79,30.34,30.20,14,2,21,0.02
2014-2-11,57.3,52.4,47.9,54.0,50.4,47.0,98,93,81,30.29,30.21,10,2,16,0.01
2014-2-12,61.8,53.2,45.8,54.0,50.3,45.0,97,90,73,30.31,30.21,12,4,17,0.01
2014-2-13,69.5,58.7,49.5,57.0,53.7,49.0,97,85,59,30.24,30.14,10,2,14,0.00
2014-2-14,68.9,57.6,51.0,60.0,54.0,50.0,98,88,63,30.21,30.09,13,1,13,0.01
2014-2-15,58.3,53.6,50.4,56.0,52.2,49.0,97,95,88,30.13,30.02,7,1,11,0.01
2014-2-16,66.6,57.3,50.4,58.0,52.2,46.0,97,84,62,30.22,30.11,10,2,14,0.03
2014-2-17,64.4,55.0,48.6,51.0,48.8,44.0,94,81,62,30.21,30.12,11,2,17,0.00
2014-2-18,64.1,54.5,45.6,54.0,49.1,44.0,95,83,55,30.22,30.12,12,2,15,0.01
2014-2-19,64.7,55.8,50.4,55.0,50.2,47.0,95,82,59,30.23,30.14,7,2,15,0.00
2014-2-20,71.5,56.8,47.6,51.0,45.8,39.0,93,69,32,30.22,30.12,11,3,15,0.00
2014-2-21,74.8,59.1,49.4,52.0,45.7,38.0,89,64,30,30.12,30.02,10,2,14,0.00
2014-2-22,65.6,54.7,48.1,55.0,49.8,46.0,95,84,66,30.04,29.99,9,2,17,0.00
2014-2-23,65.4,54.3,47.7,53.0,49.2,46.0,93,84,63,30.04,30.00,17,2,19,0.00
2014-2-24,54.1,50.2,47.6,51.0,48.5,46.0,96,93,81,30.04,29.98,15,4,19,0.00
2014-2-25,56.4,52.0,47.7,51.0,49.0,46.0,95,89,81,30.04,29.96,26,6,35,0.00
2014-2-26,60.0,56.1,53.2,56.0,52.9,49.0,95,89,80,30.01,29.74,20,6,39,0.18
2014-2-27,59.4,56.8,54.0,55.0,52.1,47.0,95,85,64,29.98,29.55,21,6,29,0.00
2014-2-28,61.0,56.2,53.9,58.0,52.3,48.0,96,87,72,29.55,29.39,31,9,51,0.31
2014-3-1,60.8,56.7,53.5,55.0,52.5,50.0,93,86,78,29.84,29.46,25,8,33,0.19
2014-3-2,58.3,54.7,51.8,56.0,53.3,51.0,97,95,89,30.23,29.85,22,6,27,0.00
2014-3-3,61.1,53.6,48.7,54.0,50.9,47.0,96,90,76,30.23,30.12,10,2,14,0.01
2014-3-4,58.0,55.2,52.3,58.0,54.3,52.0,98,96,90,30.16,30.09,9,1,13,0.11
2014-3-5,62.4,55.7,50.8,57.0,54.0,50.0,98,94,81,30.18,30.09,19,2,24,0.01
2014-3-6,67.4,58.3,51.8,59.0,55.5,51.0,98,90,71,30.24,30.13,15,2,22,0.04
2014-3-7,67.8,57.3,50.1,55.0,52.0,49.0,98,84,60,30.22,30.14,7,1,14,0.01
2014-3-8,71.6,58.3,48.4,56.0,52.1,47.0,96,81,55,30.24,30.13,10,2,15,0.00
2014-3-9,69.6,60.2,54.1,55.0,51.8,46.0,94,75,43,30.20,30.13,13,2,18,0.00
2014-3-10,67.7,57.9,51.5,56.0,52.7,50.0,95,84,63,30.25,30.15,8,2,17,0.00
2014-3-11,74.7,62.2,51.7,50.0,40.1,30.0,92,47,21,30.20,30.01,9,2,16,0.00
2014-3-12,77.3,62.3,51.8,50.0,40.9,36.0,75,48,24,30.06,29.98,8,1,16,0.00
2014-3-13,73.9,61.2,52.5,55.0,46.5,32.0,91,61,35,30.13,30.01,6,1,13,0.00
2014-3-14,67.7,57.9,52.3,54.0,51.1,49.0,92,79,61,30.26,30.13,10,1,12,0.00
2014-3-15,70.5,57.1,50.3,61.0,52.8,49.0,98,86,63,30.33,30.25,13,3,20,0.00
2014-3-16,66.8,56.5,50.5,58.0,52.4,49.0,99,87,65,30.33,30.25,15,4,22,0.01
2014-3-17,65.5,56.1,48.8,52.0,49.3,46.0,94,79,58,30.29,30.00,8,2,15,0.01
2014-3-18,73.5,58.0,46.2,51.0,46.0,35.0,96,69,30,30.03,29.92,6,1,13,0.00
2014-3-19,68.3,57.1,46.6,56.0,47.7,38.0,90,72,41,30.10,29.99,9,1,11,0.00
2014-3-20,68.8,56.0,48.2,55.0,49.7,45.0,92,80,59,30.10,30.01,9,1,13,0.00
2014-3-21,60.9,54.0,49.4,49.0,47.4,45.0,91,79,63,30.07,30.01,8,2,11,0.00
2014-3-22,60.6,53.0,48.5,49.0,46.9,45.0,87,80,65,30.18,30.06,10,2,11,0.00
2014-3-23,64.0,55.3,50.5,52.0,48.9,47.0,91,79,59,30.22,30.14,12,1,14,0.00
2014-3-24,65.4,55.5,48.0,53.0,49.2,45.0,93,80,64,30.20,30.07,14,3,17,0.00
2014-3-25,67.6,54.3,46.7,55.0,50.3,43.0,95,87,60,30.11,29.95,10,2,16,0.04
2014-3-26,64.6,55.4,52.0,57.0,52.5,50.0,96,90,71,30.05,29.90,13,4,23,0.08
2014-3-27,65.7,56.9,51.2,55.0,51.4,47.0,93,82,67,30.20,30.04,6,1,12,0.00
2014-3-28,69.3,57.5,50.8,56.0,50.8,46.0,92,79,55,30.25,30.18,6,1,8,0.00
2014-3-29,58.5,54.9,51.8,55.0,51.4,48.0,96,88,78,30.21,30.07,18,3,22,0.27
2014-3-30,64.8,56.1,48.9,55.0,49.7,46.0,95,80,60,30.21,30.10,7,1,14,0.03
2014-3-31,57.5,50.6,47.3,49.0,45.9,42.0,94,84,70,30.13,29.90,16,3,30,0.25
2014-4-1,56.2,50.6,47.2,50.0,45.9,43.0,91,84,69,30.02,29.90,18,6,31,0.18
2014-4-2,64.6,54.4,45.7,51.0,47.1,44.0,94,78,57,30.16,29.94,8,2,11,0.27
2014-4-3,61.2,53.8,46.5,51.0,47.6,43.0,93,80,68,30.17,30.10,10,3,13,0.00
2014-4-4,65.2,55.7,50.5,53.0,48.6,43.0,94,78,54,30.11,30.04,12,1,17,0.15
2014-4-5,65.9,57.5,51.8,53.0,50.2,47.0,89,77,62,30.25,30.09,7,2,13,0.00
2014-4-6,69.2,58.2,48.8,56.0,51.8,47.0,96,80,56,30.26,30.14,12,2,18,0.00
2014-4-7,81.4,63.6,52.6,59.0,53.5,50.0,93,72,42,30.16,30.12,9,1,13,0.00
2014-4-8,62.0,55.4,50.0,57.0,52.4,49.0,97,90,77,30.16,30.10,8,1,11,0.00
2014-4-9,65.8,56.3,51.2,55.0,51.8,50.0,96,86,66,30.13,30.05,10,1,14,0.00
2014-4-10,64.8,55.1,47.5,54.0,50.8,46.0,96,86,67,30.09,29.98,11,2,15,0.01
2014-4-11,61.8,54.1,51.2,53.0,50.4,49.0,94,88,73,30.03,29.94,9,3,12,0.00
2014-4-12,61.8,55.7,52.7,52.0,49.6,48.0,86,80,68,30.02,29.94,10,3,15,0.00
2014-4-13,66.5,57.6,53.9,52.0,50.4,49.0,88,78,56,30.11,30.01,7,2,11,0.00
2014-4-14,66.1,56.2,51.0,55.0,51.7,49.0,95,85,67,30.16,30.05,6,2,14,0.00
2014-4-15,67.0,57.2,51.4,54.0,51.3,48.0,93,81,59,30.12,29.99,7,1,11,0.00
2014-4-16,67.9,57.6,50.5,54.0,51.0,48.0,93,80,60,29.99,29.90,12,2,14,0.00
2014-4-17,60.4,54.8,51.2,53.0,50.8,48.0,94,86,74,29.98,29.85,8,1,8,0.00
2014-4-18,58.7,54.3,51.5,52.0,50.1,49.0,92,86,76,30.02,29.94,7,1,9,0.00
2014-4-19,67.3,56.4,48.1,53.0,50.4,46.0,94,81,60,30.19,30.02,9,1,12,0.00
2014-4-20,68.9,57.6,50.8,56.0,51.6,48.0,96,82,58,30.19,30.12,13,3,17,0.00
2014-4-21,66.5,55.7,47.9,59.0,50.4,46.0,95,83,61,30.15,30.04,11,2,16,0.00
2014-4-22,63.9,55.5,49.6,51.0,47.6,46.0,92,76,56,30.19,30.03,7,2,16,0.02
2014-4-23,64.8,55.6,46.7,51.0,47.7,43.0,89,76,58,30.20,30.11,6,2,12,0.00
2014-4-24,69.9,57.8,48.0,56.0,52.0,46.0,96,82,58,30.17,30.04,4,1,11,0.00
2014-4-25,58.9,54.1,49.0,55.0,51.6,46.0,95,91,80,30.04,29.88,15,2,23,0.18
2014-4-26,65.0,55.7,50.2,50.0,47.7,46.0,88,75,57,30.16,29.93,8,2,13,0.01
2014-4-27,65.7,56.0,50.1,55.0,49.5,45.0,92,79,66,30.20,30.11,6,1,13,0.00
2014-4-28,67.7,57.0,47.9,54.0,49.2,45.0,96,77,58,30.26,30.17,14,2,21,0.00
2014-4-29,80.6,63.7,49.6,53.0,47.9,45.0,91,60,34,30.22,30.08,15,3,18,0.00
2014-4-30,79.8,68.9,58.3,53.0,46.3,30.0,67,46,23,30.10,30.05,6,1,8,0.00
2014-5-1,81.6,68.6,59.6,58.0,43.6,28.0,75,43,20,30.13,30.04,6,1,8,0.00
2014-5-2,67.9,58.2,51.1,55.0,52.2,47.0,95,81,64,30.12,30.07,16,4,22,0.00
2014-5-3,65.8,57.3,51.9,54.0,52.1,50.0,95,83,64,30.11,30.05,8,2,14,0.00
2014-5-4,69.9,58.9,50.3,57.0,52.8,49.0,96,81,59,30.12,30.06,4,0,12,0.00
2014-5-5,70.3,58.5,50.8,57.0,52.2,48.0,95,81,58,30.11,30.03,6,1,11,0.01
2014-5-6,65.8,56.9,51.7,53.0,49.7,48.0,87,77,59,30.04,29.96,7,2,15,0.00
2014-5-7,65.3,56.4,51.7,53.0,49.0,47.0,86,77,59,30.10,30.00,9,1,12,0.00
2014-5-8,65.9,57.4,50.5,55.0,51.9,48.0,96,82,62,30.17,30.09,7,1,9,0.00
2014-5-9,66.9,58.6,52.1,59.0,54.1,50.0,98,86,64,30.23,30.15,8,1,12,0.03
2014-5-10,64.3,56.0,50.7,52.0,49.4,48.0,92,79,60,30.22,30.06,8,3,18,0.00
2014-5-11,68.2,57.0,46.7,53.0,48.3,45.0,96,75,51,30.14,30.05,9,2,16,0.00
2014-5-12,75.5,60.4,48.5,56.0,49.9,45.0,96,71,39,30.15,30.08,7,2,14,0.01
2014-5-13,81.8,66.0,53.5,57.0,45.5,36.0,82,50,23,30.17,30.08,4,0,6,0.00
2014-5-14,88.4,72.8,62.3,52.0,41.0,32.0,55,33,20,30.16,30.08,5,1,12,0.00
2014-5-15,75.1,65.9,55.7,56.0,47.7,40.0,77,53,40,30.12,30.06,13,2,18,0.00
2014-5-16,69.3,59.2,51.7,55.0,52.2,49.0,93,79,56,30.14,30.05,7,2,13,0.00
2014-5-17,67.4,58.9,52.4,55.0,52.7,51.0,94,80,62,30.10,30.02,9,1,11,0.00
2014-5-18,69.2,58.1,50.6,57.0,52.6,49.0,96,83,61,30.07,30.00,6,1,13,0.00
2014-5-19,67.7,58.3,51.4,57.0,53.5,50.0,95,84,67,30.06,30.01,5,1,8,0.01
2014-5-20,63.8,57.3,52.0,56.0,53.4,50.0,95,87,73,30.10,30.01,7,2,8,0.01
2014-5-21,57.5,55.4,54.1,54.0,52.8,52.0,95,90,85,30.07,30.02,7,1,10,0.01
2014-5-22,55.0,54.4,54.0,53.0,52.1,52.0,94,92,89,30.04,30.00,2,0,6,0.01
2014-5-24,60.6,57.3,55.1,54.7,53.8,53.1,93,88,81,30.10,30.08,1,1,0,0.00
2014-5-25,63.8,56.4,52.7,53.8,52.3,51.3,95,87,69,30.05,30.03,6,1,0,0.01
2014-5-26,68.0,60.5,51.8,55.8,53.0,49.1,94,77,64,30.10,30.04,15,2,0,0.00
2014-5-27,68.0,57.9,50.5,53.7,50.2,47.8,94,77,54,30.12,30.06,16,2,0,0.00
2014-5-28,66.5,57.7,50.3,52.4,48.9,46.9,92,74,55,30.09,29.97,21,3,0,0.00
2014-5-29,68.5,56.6,48.8,54.3,50.2,47.2,94,80,59,30.01,29.94,21,3,0,0.00
2014-5-30,65.0,56.0,50.7,53.4,50.5,48.5,93,82,65,30.05,29.97,11,1,0,0.00
2014-5-31,60.5,55.1,51.1,52.9,50.8,49.1,93,86,75,30.06,29.99,9,1,0,0.00
2014-6-1,59.7,53.1,50.0,53.4,50.5,48.3,96,91,79,29.99,29.91,13,2,0,0.01
2014-6-2,61.2,55.1,50.5,54.5,52.1,49.4,97,90,77,30.00,29.91,14,4,0,0.00
2014-6-3,59.3,54.2,51.7,53.4,51.2,49.6,95,90,78,30.02,29.95,10,2,0,0.02
2014-6-4,61.9,54.2,50.4,54.3,50.9,49.0,96,89,73,29.98,29.92,9,1,0,0.00
2014-6-5,61.2,54.3,50.2,55.0,51.9,48.8,97,92,79,29.95,29.90,10,2,0,0.01
2014-6-6,59.2,54.4,50.5,53.8,51.8,49.4,97,91,81,29.92,29.89,13,5,0,0.00
2014-6-7,59.8,54.8,51.6,53.6,51.4,49.9,94,89,78,29.93,29.87,11,2,0,0.00
2014-6-8,58.7,54.7,50.6,54.6,52.3,49.2,96,92,82,29.89,29.81,16,2,0,0.00
2014-6-9,57.4,54.6,52.0,54.9,53.4,51.3,98,96,91,29.85,29.79,24,7,0,0.00
2014-6-10,60.5,56.3,53.5,56.2,54.5,52.9,100,94,85,29.92,29.80,24,7,0,0.01
2014-6-11,61.3,57.7,55.9,57.1,55.5,54.3,96,92,86,29.98,29.90,24,8,0,0.00
2014-6-12,59.5,55.7,54.2,54.4,53.6,52.8,95,93,81,30.06,29.97,11,1,0,0.00
2014-6-13,69.3,61.0,52.8,55.7,51.9,-99.9,93,74,60,30.05,-32.77,12,-6,0,0.00
2014-6-16,68.0,60.8,52.5,54.0,51.8,49.0,89,73,60,30.03,30.01,12,2,0,0.00
2014-6-17,67.8,57.8,51.4,53.7,50.9,48.4,91,78,60,30.02,29.98,11,1,0,0.00
2014-6-18,70.2,58.0,49.2,56.3,52.6,47.5,96,83,60,30.03,29.96,12,1,0,0.01
2014-6-19,65.8,56.6,51.7,55.2,52.2,49.6,96,86,67,30.09,29.99,11,2,9,0.00
2014-6-20,54.7,54.2,53.9,52.9,52.6,52.3,95,94,94,30.03,30.02,9,1,9,0.00
2014-6-21,62.1,56.8,52.6,54.5,52.8,50.9,94,87,74,29.99,29.98,8,1,8,0.00
2014-6-22,61.1,56.6,54.5,53.1,51.9,51.3,90,84,75,30.04,30.02,11,1,11,0.00
2014-6-23,62.6,57.2,53.4,54.5,52.2,49.5,92,84,73,30.05,30.00,10,1,10,0.00
2014-6-24,66.0,57.6,50.6,57.1,53.6,49.1,96,87,72,30.12,30.03,16,1,16,0.00
2014-6-25,67.7,59.7,55.1,59.4,56.0,53.5,95,88,73,30.09,30.01,9,1,9,0.00
2014-6-26,69.5,61.1,56.5,59.8,56.9,54.9,96,87,69,30.06,30.01,9,1,9,0.00
2014-6-27,74.6,61.5,54.8,60.6,56.7,52.2,95,85,61,30.06,30.00,10,1,10,0.00
2014-6-28,71.3,61.4,54.4,58.6,55.3,53.0,96,82,61,30.02,29.98,18,2,18,0.00
2014-6-29,70.5,60.2,53.0,57.5,54.2,51.3,95,81,61,30.01,29.91,11,2,11,0.00
2014-6-30,61.1,55.0,52.0,55.5,52.7,50.3,97,92,80,29.92,29.88,38,6,38,0.00
2014-7-1,58.2,55.7,53.5,55.8,54.2,52.7,100,95,90,29.94,29.87,21,4,21,0.01
2014-7-2,62.5,57.9,55.0,57.5,55.3,53.9,96,91,82,30.00,29.90,9,1,9,0.01
2014-7-3,67.8,59.3,55.4,57.4,54.6,52.8,93,85,68,30.04,29.97,10,1,10,0.00
2014-7-4,64.0,57.1,53.6,56.0,53.5,52.2,96,88,73,30.07,29.96,10,1,10,0.00
2014-7-5,65.5,57.1,52.2,56.7,53.4,51.1,97,88,71,30.14,30.05,10,1,10,0.01
2014-7-6,66.0,57.2,51.7,56.8,53.6,50.6,97,88,71,30.11,30.00,17,2,17,0.01
2014-7-7,54.8,54.1,53.7,53.1,52.6,52.3,95,95,94,30.01,29.96,5,1,5,0.00
2014-7-12,71.0,63.1,56.8,59.6,56.4,54.7,93,79,66,30.14,30.08,10,1,10,0.01
2014-7-13,65.1,59.6,55.6,58.0,55.8,54.1,95,88,76,30.09,29.93,13,2,13,0.00
2014-7-14,62.9,58.8,56.2,58.4,56.2,54.9,96,91,82,30.02,29.91,9,1,12,0.00
2014-7-15,64.1,60.1,56.7,61.0,58.3,55.0,96,94,89,30.06,30.00,20,3,20,0.00
2014-7-16,65.7,61.2,58.7,61.4,59.0,57.2,98,93,85,30.10,30.03,15,3,15,0.00
2014-7-17,68.8,62.0,57.5,61.6,58.3,55.2,93,88,76,30.09,30.03,11,2,11,0.00
2014-7-18,72.9,64.0,59.8,62.7,59.5,57.5,94,86,68,30.08,30.01,10,2,10,0.00
2014-7-19,70.1,63.9,60.4,62.6,59.4,57.3,94,86,75,30.03,29.98,12,2,12,0.00
2014-7-20,72.6,65.6,60.6,64.3,61.0,57.0,94,86,70,30.06,29.97,11,2,11,0.00
2014-7-21,68.4,64.4,60.3,62.9,61.4,58.0,95,90,80,30.14,30.03,10,2,10,0.00
2014-7-22,74.7,65.4,59.6,64.6,60.8,57.8,95,86,69,30.17,30.08,11,2,11,0.00
2014-7-23,81.2,67.4,57.8,65.9,60.1,55.8,94,79,51,30.18,30.08,13,1,13,0.00
2014-7-24,74.2,64.6,59.3,61.7,59.1,56.8,95,83,63,30.10,29.91,13,2,14,0.00
2014-7-25,68.0,62.7,58.8,61.8,59.1,56.9,95,88,79,29.96,29.88,14,2,14,0.00
2014-7-26,65.5,61.2,57.8,61.3,58.9,57.0,97,92,86,30.03,29.95,17,2,17,0.00
2014-7-27,69.4,62.6,59.5,62.5,59.5,57.6,95,90,76,30.07,29.99,15,3,15,0.04
2014-7-28,70.1,63.8,60.1,62.2,59.5,58.0,93,86,74,30.14,30.04,13,2,13,0.00
2014-7-29,71.3,64.4,60.5,62.3,59.7,58.0,94,85,71,30.12,30.05,12,2,12,0.00
2014-7-30,72.1,62.6,59.0,61.4,58.8,57.1,94,88,68,30.08,30.02,11,1,11,0.00
2014-7-31,71.1,62.1,57.8,61.7,58.6,56.5,96,89,70,30.05,29.97,10,1,10,0.00
2014-8-1,66.8,61.0,58.1,61.3,58.5,56.8,97,92,81,30.01,29.95,8,0,8,0.00
2014-8-2,67.4,60.9,57.3,60.3,57.9,56.2,97,90,76,30.02,29.95,10,1,10,0.00
2014-8-3,66.8,61.2,58.3,59.8,57.6,56.3,98,88,76,30.04,30.00,9,1,9,0.00
2014-8-4,66.8,61.6,59.3,60.7,58.0,56.3,91,88,79,30.07,29.99,17,5,17,0.00
2014-8-5,71.5,63.3,60.3,62.1,58.8,57.2,92,86,70,30.13,30.05,10,1,10,0.00
2014-8-6,67.4,61.9,60.2,62.5,59.6,58.0,96,92,83,30.11,30.03,11,2,11,0.00
2014-8-7,66.8,61.4,58.0,60.1,58.1,55.8,94,89,78,30.06,29.99,9,1,9,0.00
2014-8-8,67.5,62.1,57.5,58.9,57.2,55.1,94,84,73,30.02,29.97,10,1,10,0.00
2014-8-9,66.1,60.6,56.9,59.4,56.6,54.6,94,87,77,30.07,29.98,6,1,6,0.00
2014-8-10,69.1,61.6,58.2,60.7,57.2,55.0,93,86,71,30.09,30.00,7,1,7,0.00
2014-8-11,67.3,61.9,57.3,59.4,57.3,55.0,92,85,73,30.03,29.97,11,3,11,0.00
2014-8-12,69.8,63.4,59.4,60.7,57.8,55.6,92,82,71,30.06,29.99,10,2,10,0.00
2014-8-13,72.2,63.7,59.1,62.0,57.9,55.1,92,82,66,30.07,29.99,9,1,9,0.00
2014-8-14,67.1,61.7,59.0,61.0,59.0,57.0,96,91,80,30.05,29.98,5,1,10,0.01
2014-8-15,65.1,60.0,56.4,59.0,57.4,56.0,97,91,81,30.07,30.00,12,2,15,0.01
2014-8-16,68.5,60.9,56.8,60.0,57.0,55.0,95,87,72,30.11,30.04,8,2,10,0.00
2014-8-17,71.8,62.7,57.0,61.0,57.7,55.0,93,84,68,30.09,29.99,8,1,11,0.00
2014-8-18,66.7,61.3,58.6,61.0,58.7,57.0,98,91,80,29.98,29.90,5,0,9,0.01
2014-8-19,65.7,60.6,58.9,62.0,58.9,58.0,98,94,86,29.96,29.90,11,2,19,0.04
2014-8-20,69.2,63.1,60.6,61.0,58.6,57.0,90,85,75,30.01,29.91,18,4,23,0.00
2014-8-21,65.1,61.6,59.5,60.0,58.4,57.0,93,89,81,30.03,29.96,10,3,15,0.00
2014-8-22,66.6,61.2,58.3,61.0,58.6,56.0,95,91,82,30.03,29.99,11,2,14,0.00
2014-8-23,66.9,62.2,59.8,60.0,57.9,57.0,91,86,77,30.03,29.93,16,5,19,0.00
2014-8-24,68.3,62.7,58.2,61.0,57.7,56.0,91,84,71,29.97,29.89,14,4,17,0.00
2014-8-25,70.5,64.0,60.0,59.0,57.3,56.0,91,79,64,30.01,29.90,13,3,17,0.00
2014-8-26,74.5,65.7,59.5,61.0,57.7,56.0,90,76,58,30.06,30.00,8,1,11,0.00
2014-8-27,76.7,65.2,57.3,64.0,59.4,56.0,97,83,63,30.12,30.05,8,1,16,0.00
2014-8-28,73.5,64.6,60.8,61.0,59.1,57.0,92,83,64,30.12,30.01,6,1,12,0.00
2014-8-29,71.0,63.9,59.8,62.0,60.0,58.0,95,87,73,30.03,29.95,10,1,15,0.00
2014-8-30,75.4,66.1,60.2,64.0,61.0,59.0,97,85,67,29.97,29.91,13,2,21,0.01
2014-8-31,75.0,65.3,59.8,63.0,60.1,57.0,95,84,65,30.00,29.92,9,1,14,0.00
2014-9-1,70.1,62.4,57.5,62.0,58.9,56.0,96,89,74,29.92,29.85,8,1,9,0.00
2014-9-2,65.8,61.8,59.8,62.0,59.1,58.0,94,91,85,29.95,29.86,5,1,9,0.00
2014-9-3,65.2,61.0,58.2,60.0,58.1,56.0,94,90,82,29.87,29.77,15,6,22,0.00
2014-9-4,65.6,60.7,57.9,59.0,57.5,56.0,94,89,79,29.87,29.77,12,4,16,0.00
2014-9-5,65.5,61.2,57.1,59.0,57.0,55.0,92,86,78,29.97,29.87,12,4,17,0.00
2014-9-6,69.5,61.8,57.2,59.0,56.2,54.0,92,82,68,30.02,29.94,9,1,11,0.00
2014-9-7,73.9,63.7,58.4,59.0,57.0,55.0,91,80,60,29.95,29.87,6,1,11,0.00
2014-9-8,71.7,63.3,58.8,57.0,55.3,54.0,87,76,57,30.00,29.90,5,1,10,0.00
2014-9-9,74.3,62.5,55.4,60.0,56.2,53.0,92,81,61,30.04,29.96,12,2,12,0.00
2014-9-10,71.4,61.7,56.8,60.0,57.3,55.0,94,86,67,29.98,29.91,13,3,16,0.00
2014-9-11,63.7,59.1,55.7,60.0,56.9,55.0,97,92,82,29.96,29.89,10,2,13,0.00
2014-9-12,66.6,61.0,57.4,60.0,58.1,56.0,96,90,78,29.95,29.87,7,1,11,0.00
2014-9-13,69.4,61.9,58.8,62.0,58.5,57.0,95,89,74,29.91,29.86,5,1,11,0.00
2014-9-14,74.7,64.2,58.8,62.0,59.2,57.0,96,84,63,29.92,29.86,9,1,12,0.00
2014-9-15,75.1,65.0,58.3,63.0,59.3,57.0,95,83,64,29.98,29.88,8,1,11,0.00
2014-9-16,77.1,65.3,56.4,64.0,59.1,55.0,95,82,55,29.98,29.87,11,2,15,0.00
2014-9-17,71.5,64.2,60.0,62.0,60.1,59.0,95,87,71,29.89,29.82,18,4,22,0.00
2014-9-18,69.7,64.7,61.4,65.0,62.4,60.0,97,92,83,29.94,29.84,13,4,17,0.00
2014-9-19,76.2,65.3,59.3,65.0,61.3,58.0,96,87,68,29.96,29.92,4,1,10,0.00
2014-9-20,65.4,62.8,60.9,62.0,60.3,58.0,95,91,87,30.01,29.93,8,1,10,0.00
2014-9-21,74.4,64.9,61.4,64.0,60.4,59.0,92,86,69,30.07,29.99,7,1,9,0.00
2014-9-22,79.3,67.0,60.4,64.0,60.6,58.0,94,81,59,30.08,30.01,4,1,11,0.00
2014-9-23,78.7,66.3,59.7,65.0,61.5,58.0,95,85,61,30.05,29.99,7,1,13,0.02
2014-9-24,75.9,66.5,61.4,64.0,62.5,60.0,96,87,65,30.03,29.95,5,1,10,0.00
2014-9-25,77.4,65.3,60.3,65.0,61.1,58.0,97,87,60,30.07,29.93,5,1,10,0.31
2014-9-26,76.8,65.5,57.3,63.0,59.6,56.0,96,82,61,30.05,29.97,6,1,12,0.00
2014-9-27,67.6,63.7,60.9,61.0,59.0,58.0,91,85,76,30.00,29.93,4,0,7,0.00
2014-9-28,66.6,62.0,59.4,61.0,58.7,57.0,95,88,82,30.00,29.90,8,1,11,0.00
2014-9-29,74.6,63.6,56.6,62.0,59.1,56.0,97,86,65,30.08,29.99,9,1,16,0.00
2014-9-30,73.5,63.7,57.3,62.0,58.6,56.0,96,84,64,30.05,29.89,5,1,10,0.01
2014-10-1,80.2,66.8,55.8,64.0,56.7,44.0,97,73,46,29.94,29.86,11,2,16,0.01
2014-10-2,88.3,73.5,59.6,51.0,42.2,36.0,55,34,18,30.04,29.94,4,1,9,0.00
2014-10-3,92.1,74.9,65.0,58.0,46.4,37.0,59,38,20,30.08,30.03,4,0,9,0.00
2014-10-4,94.5,72.9,62.9,59.0,48.9,40.0,82,45,19,30.05,29.95,12,2,21,0.00
2014-10-5,76.6,64.9,58.4,61.0,57.2,47.0,95,77,52,29.97,29.92,16,4,19,0.00
2014-10-6,79.4,62.6,54.4,62.0,57.4,54.0,100,85,56,29.95,29.91,16,4,24,0.01
2014-10-7,71.0,61.0,55.7,61.0,57.4,55.0,97,88,69,29.96,29.91,16,3,22,0.00
2014-10-8,70.0,61.4,56.2,61.0,57.5,55.0,96,87,72,29.97,29.90,14,2,22,0.00
2014-10-9,67.7,60.9,57.1,60.0,57.7,56.0,97,89,75,30.05,29.96,9,1,13,0.00
2014-10-10,65.5,60.5,57.3,58.0,56.7,55.0,94,87,76,30.12,30.05,7,1,11,0.00
2014-10-11,70.3,61.2,56.6,60.0,57.1,55.0,95,87,69,30.11,30.02,6,1,12,0.00
2014-10-12,80.8,66.1,55.2,61.0,54.4,43.0,96,69,43,30.01,29.92,14,4,18,0.00
2014-10-13,67.2,62.7,58.6,61.0,52.3,30.0,95,73,27,30.03,29.93,17,3,19,0.00
2014-10-14,66.8,63.0,59.7,60.0,58.1,57.0,94,84,73,30.00,29.87,34,8,46,0.00
2014-10-15,73.3,64.8,58.0,62.0,59.8,55.0,94,84,67,30.08,29.92,17,2,22,0.00
2014-10-16,72.4,62.2,55.2,61.0,56.4,50.0,96,82,61,30.08,29.99,8,1,11,0.00
2014-10-17,69.3,61.9,55.4,61.0,54.3,46.0,91,76,62,30.04,29.97,16,3,19,0.00
2014-10-18,78.8,65.8,57.7,63.0,58.5,54.0,90,78,51,30.02,29.93,10,1,13,0.00
2014-10-19,73.3,63.2,57.3,62.0,58.3,54.0,93,84,61,29.97,29.91,11,1,13,0.00
2014-10-20,71.1,63.4,58.0,62.0,58.3,56.0,94,84,68,30.11,29.95,10,1,12,0.00
2014-10-21,73.5,62.7,53.8,57.0,54.6,52.0,94,77,50,30.14,30.04,7,1,13,0.00
2014-10-22,75.7,63.6,54.2,61.0,55.4,49.0,90,76,52,30.11,30.04,12,2,14,0.00
2014-10-23,78.9,65.6,55.9,64.0,58.8,54.0,95,80,46,30.10,30.00,10,1,13,0.00
2014-10-24,66.9,60.8,55.8,61.0,57.2,54.0,96,88,77,30.02,29.95,16,3,20,0.00
2014-10-25,70.4,63.4,58.6,62.0,59.0,56.0,95,86,74,30.18,29.98,20,4,31,0.05
2014-10-26,73.3,62.3,55.1,59.0,54.7,50.0,95,78,47,30.20,30.08,11,2,15,0.01
2014-10-27,72.1,60.8,51.4,57.0,54.0,50.0,95,80,58,30.11,30.05,9,1,13,0.00
2014-10-28,72.8,61.1,51.1,60.0,54.4,50.0,95,80,59,30.13,30.08,15,2,17,0.00
2014-10-30,61.8,59.5,58.5,58.5,57.4,56.6,95,93,88,30.00,29.94,24,8,24,0.00
2014-10-31,61.2,59.2,56.5,58.6,57.1,53.9,96,93,89,29.97,29.88,27,5,27,0.04
2014-11-1,52.6,51.6,51.2,51.2,50.4,50.1,96,96,95,29.91,29.88,5,2,5,0.51
2014-11-2,71.0,60.1,51.5,55.8,52.4,49.1,94,77,52,30.22,30.13,11,1,13,0.00
2014-11-3,72.3,58.7,49.3,57.1,51.5,47.0,93,79,44,30.30,30.20,6,1,11,0.00
2014-11-4,73.0,60.4,48.8,57.4,51.0,45.5,94,73,39,30.32,30.23,17,2,17,0.01
2014-11-5,84.2,66.1,54.4,56.9,45.3,35.0,75,49,25,30.23,30.09,12,1,12,0.00
2014-11-6,72.8,62.1,55.1,60.3,53.8,40.6,96,75,47,30.24,30.16,20,2,20,0.00
2014-11-7,68.3,58.9,53.2,60.1,56.1,52.1,100,91,73,30.25,30.10,16,4,16,0.02
2014-11-8,77.0,61.2,51.8,62.4,56.1,50.9,98,85,56,30.13,30.03,11,1,11,0.00
2014-11-9,65.4,58.0,54.6,58.7,55.8,53.8,97,92,77,30.05,29.87,18,3,18,0.01
2014-11-10,61.3,56.9,52.9,57.2,54.7,52.1,98,92,83,29.91,29.84,29,7,29,0.01
2014-11-11,61.6,58.6,56.7,56.1,54.4,51.0,92,86,76,30.03,29.91,21,1,21,0.00
2014-11-12,70.2,60.4,57.2,52.7,50.5,48.9,80,71,51,30.07,30.02,8,1,9,0.00
2014-11-13,65.0,59.5,53.9,63.0,57.9,52.0,96,94,79,30.12,29.99,19,5,26,0.06
2014-11-14,72.0,60.7,53.5,61.0,56.4,53.0,98,86,65,30.16,30.10,5,1,11,0.01
2014-11-15,71.4,60.1,51.7,59.0,54.2,50.0,95,82,60,30.21,30.13,5,1,11,0.00
2014-11-16,73.0,58.4,50.6,53.0,48.2,33.0,95,71,42,30.27,30.18,9,1,10,0.01
2014-11-17,71.2,59.5,49.7,52.0,44.8,34.0,78,60,40,30.26,30.11,5,1,10,0.00
2014-11-18,72.6,61.9,52.9,54.0,45.6,35.0,82,58,29,30.15,30.06,23,4,30,0.00
2014-11-19,64.6,60.9,58.8,59.0,52.8,42.0,95,76,51,30.17,30.04,21,6,37,0.00
2014-11-20,60.4,57.6,55.0,58.0,55.3,52.0,96,92,85,30.17,30.03,14,3,23,0.10
2014-11-21,71.0,59.8,52.6,60.0,54.3,50.0,96,83,61,30.20,30.07,8,0,10,0.00
2014-11-22,64.9,57.7,53.5,64.0,54.9,50.0,98,88,79,30.27,30.14,13,2,17,0.09
2014-11-23,73.9,57.6,50.5,55.0,49.9,47.0,96,76,45,30.35,30.25,8,2,14,0.01
2014-11-24,73.6,58.9,48.1,52.0,43.5,33.0,85,59,31,30.42,30.32,11,2,14,0.00
2014-11-25,75.5,61.0,49.8,47.0,39.7,31.0,74,48,23,30.42,30.32,4,0,5,0.00
2014-11-26,81.5,64.9,51.5,53.0,43.6,30.8,78,49,17,30.32,30.21,11,1,11,0.00
2014-11-27,75.6,61.2,54.1,56.9,46.9,35.0,94,61,36,30.21,30.08,19,2,19,0.00
2014-11-28,67.8,56.5,45.3,54.5,50.6,43.4,96,82,56,30.10,29.93,10,1,10,0.00
2014-11-29,61.6,57.1,53.5,58.2,52.5,46.6,93,85,67,29.93,29.76,20,2,20,0.02
2014-11-30,63.6,58.3,51.4,59.6,54.8,46.1,95,88,67,30.07,29.78,37,4,37,0.10
2014-12-1,68.3,60.6,56.0,61.4,56.7,53.3,94,87,74,30.15,29.94,26,2,26,0.01
2014-12-2,63.3,59.7,56.3,60.9,57.4,54.4,98,92,84,29.94,29.69,42,6,42,1.54
2014-12-3,64.8,61.2,60.5,61.3,59.2,58.8,96,92,85,29.95,29.75,44,11,44,0.03
2014-12-4,65.6,60.6,57.4,62.2,58.9,55.5,97,94,88,30.08,29.94,19,3,19,0.01
2014-12-5,63.7,60.5,58.2,60.4,58.6,56.4,97,93,89,30.15,30.04,26,3,26,0.31
2014-12-6,68.1,61.7,58.1,62.3,58.6,55.8,96,90,80,30.27,30.15,17,2,17,0.00
2014-12-7,62.5,57.8,53.2,58.0,55.6,51.8,97,92,83,30.27,30.17,19,2,19,0.00
2014-12-8,76.3,62.0,54.6,62.8,56.5,50.8,94,83,61,30.23,30.16,9,1,9,0.00
2014-12-9,71.5,60.9,55.3,62.1,57.7,53.9,97,90,69,30.23,30.10,11,1,11,0.01
2014-12-10,64.1,59.8,54.1,59.6,56.9,52.6,96,90,78,30.11,29.83,32,5,32,0.00
2014-12-11,64.0,57.1,50.3,59.8,54.9,49.5,98,92,82,29.84,29.62,53,8,53,3.46
2014-12-12,59.8,53.4,49.9,53.8,51.2,48.2,99,92,78,30.13,29.68,14,2,17,0.32
2014-12-13,66.9,55.3,49.4,55.3,48.8,45.3,92,79,56,30.25,30.13,8,1,9,0.01
2014-12-14,61.9,55.8,49.2,54.0,48.7,44.3,90,77,67,30.18,30.00,28,3,28,0.00
2014-12-15,59.0,55.7,53.7,55.8,52.1,46.7,96,87,69,30.01,29.85,33,4,33,0.02
2014-12-16,62.6,56.4,52.4,55.8,52.0,49.3,93,85,73,30.01,29.86,38,5,38,0.10
2014-12-17,57.7,53.8,50.3,53.3,50.3,48.0,95,88,78,30.15,29.99,15,2,15,0.16
2014-12-18,61.7,54.5,50.8,56.0,51.9,48.6,95,90,81,30.24,30.09,22,3,22,0.01
2014-12-19,61.3,57.6,54.6,57.7,54.6,49.0,96,89,80,30.25,30.16,32,6,32,0.07
2014-12-20,66.2,59.8,56.2,61.8,57.2,52.4,98,91,78,30.33,30.16,23,2,23,0.07
2014-12-21,68.4,60.5,56.5,60.6,57.5,52.5,98,90,75,30.36,30.30,11,1,11,0.00
2014-12-22,69.4,60.5,55.5,62.2,57.6,54.1,98,91,73,30.32,30.20,12,2,12,0.01
2014-12-23,74.3,61.6,54.0,60.1,55.7,52.0,95,82,55,30.23,30.14,14,2,14,0.01
2014-12-24,63.4,55.9,52.2,57.5,52.4,44.1,98,88,72,30.18,30.03,19,2,19,0.02
2014-12-25,64.4,55.7,50.0,45.3,37.9,34.8,76,52,36,30.15,30.05,19,3,19,0.00
2014-12-26,66.1,53.5,45.0,39.7,35.6,28.8,75,53,31,30.28,30.11,11,1,11,0.00
2014-12-27,64.6,52.9,43.1,47.6,40.0,30.0,78,62,48,30.40,30.28,7,1,8,0.00
2014-12-28,66.3,54.2,44.8,49.1,43.7,38.6,88,70,37,30.37,30.26,12,1,12,0.00
2014-12-29,62.2,54.2,47.1,48.9,45.4,42.0,89,73,58,30.27,30.15,17,1,17,0.00
2014-12-30,61.9,51.8,43.3,43.0,31.5,15.2,80,49,28,30.19,30.08,23,2,23,0.00
2014-12-31,65.2,51.3,43.0,31.1,21.2,12.6,52,33,13,30.24,30.10,20,2,20,0.00
2015-1-1,63.7,51.5,41.3,46.7,34.3,21.2,77,53,27,30.19,30.08,10,1,13,0.00
2015-1-2,63.8,51.9,44.3,47.2,39.7,34.1,79,64,40,30.23,30.13,9,1,12,0.00